This is the latest recevied weather packets stored in our database for station/object KF5JED-13. If no packets are shown the sender has not sent any weather packets the latest 1 day(s).
| Time | Temp. | Humidity | Pressure | Rain* | Wind** | Luminosity | Snow |
|---|---|---|---|---|---|---|---|
| 1836274790 | 17.78° C | 74% | 1018.7 hPa | 0 mm | 1.34 m/s, 180° | 0 W/m² | - |
| 1836274489 | 17.78° C | 74% | 1018.8 hPa | 0 mm | 1.79 m/s, 164° | 0 W/m² | - |
| 1836274342 | 17.78° C | 73% | 1018.7 hPa | 0 mm | 1.79 m/s, 160° | 0 W/m² | - |
| 1836274186 | 17.22° C | 75% | 1018.8 hPa | 0 mm | 1.79 m/s, 173° | 0 W/m² | - |
| 1836273880 | 17.78° C | 74% | 1018.7 hPa | 0 mm | 1.79 m/s, 174° | 0 W/m² | - |
| 1778047747 | 6.67° C | 77% | 1012.9 hPa | 0 mm | 4.92 m/s, 66° | 0 W/m² | - |
| 1778047444 | 6.67° C | 77% | 1012.8 hPa | 0 mm | 4.92 m/s, 65° | 0 W/m² | - |
| 1778047141 | 6.67° C | 77% | 1012.6 hPa | 0 mm | 5.81 m/s, 83° | 0 W/m² | - |
| 1778046838 | 7.22° C | 76% | 1012.6 hPa | 0 mm | 4.47 m/s, 47° | 0 W/m² | - |
| 1778046535 | 7.22° C | 76% | 1012.2 hPa | 0 mm | 5.36 m/s, 69° | 0 W/m² | - |
| 1778046232 | 7.22° C | 76% | 1012.5 hPa | 0 mm | 5.36 m/s, 65° | 0 W/m² | - |
| 1778045928 | 7.22° C | 75% | 1012.1 hPa | 0 mm | 5.36 m/s, 81° | 0 W/m² | - |
| 1778045626 | 7.22° C | 74% | 1011.8 hPa | 0 mm | 4.47 m/s, 85° | 0 W/m² | - |
| 1778045324 | 7.22° C | 74% | 1012 hPa | 0 mm | 4.92 m/s, 63° | 0 W/m² | - |
| 1778045023 | 7.22° C | 74% | 1012.1 hPa | 0 mm | 4.92 m/s, 62° | 0 W/m² | - |
| 1778044720 | 7.22° C | 74% | 1011.9 hPa | 0 mm | 3.13 m/s, 68° | 0 W/m² | - |
| 1778044416 | 7.22° C | 73% | 1011.9 hPa | 0 mm | 3.58 m/s, 82° | 0 W/m² | - |
| 1778044114 | 7.78° C | 73% | 1011.7 hPa | 0 mm | 3.13 m/s, 84° | 0 W/m² | - |
| 1778043811 | 7.78° C | 72% | 1011.5 hPa | 0 mm | 4.92 m/s, 84° | 0 W/m² | - |
| 1778043508 | 7.78° C | 72% | 1011.8 hPa | 0 mm | 4.02 m/s, 94° | 0 W/m² | - |
| 1778043205 | 7.78° C | 71% | 1012 hPa | 0 mm | 4.47 m/s, 88° | 0 W/m² | - |
| 1778042902 | 7.78° C | 71% | 1011.8 hPa | 0 mm | 4.92 m/s, 83° | 0 W/m² | - |
| 1778042600 | 8.33° C | 70% | 1011.7 hPa | 0 mm | 5.81 m/s, 87° | 0 W/m² | - |
| 1778042296 | 8.33° C | 69% | 1011.7 hPa | 0 mm | 4.02 m/s, 87° | 0 W/m² | - |
| 1778041994 | 8.33° C | 68% | 1011.7 hPa | 0 mm | 4.02 m/s, 78° | 0 W/m² | - |
* Rain latest hour (hover to see other rain measurements)
** Current wind speed in m/s (hover to see current wind gust speed)